createdAt,value
2018-09-28T00:00:49.410Z,17.45
2018-09-28T00:03:17.717Z,14.60
2018-09-28T00:05:46.032Z,16.50
2018-09-28T00:08:14.385Z,12.93
2018-09-28T00:10:42.675Z,15.73
2018-09-28T00:13:11.011Z,15.72
2018-09-28T00:15:39.350Z,18.92
2018-09-28T00:18:07.746Z,13.90
2018-09-28T00:20:36.042Z,14.37
2018-09-28T00:23:04.347Z,15.10
2018-09-28T00:25:32.694Z,16.15
2018-09-28T00:28:00.990Z,16.75
2018-09-28T00:30:29.263Z,15.13
2018-09-28T00:32:57.591Z,14.65
2018-09-28T00:35:25.962Z,13.88
2018-09-28T00:37:54.266Z,17.00
2018-09-28T00:40:22.543Z,13.95
2018-09-28T00:42:50.906Z,12.47
2018-09-28T00:45:19.262Z,18.30
2018-09-28T00:47:47.569Z,15.20
2018-09-28T00:50:15.860Z,20.87
2018-09-28T00:52:44.216Z,16.25
2018-09-28T00:55:13.391Z,15.75
2018-09-28T00:57:41.686Z,17.80
2018-09-28T01:00:10.023Z,19.80
2018-09-28T01:02:38.342Z,17.52
2018-09-28T01:05:06.649Z,19.35
2018-09-28T01:07:34.940Z,22.77
2018-09-28T01:10:03.563Z,18.48
2018-09-28T01:12:31.878Z,20.40
2018-09-28T01:15:00.199Z,21.25
2018-09-28T01:17:28.497Z,23.10
2018-09-28T01:19:56.814Z,22.07
2018-09-28T01:22:25.091Z,23.30
2018-09-28T01:24:53.425Z,22.55
2018-09-28T01:27:21.758Z,23.02
2018-09-28T01:29:50.123Z,22.50
2018-09-28T01:32:18.402Z,25.20
2018-09-28T01:34:46.853Z,22.87
2018-09-28T01:37:15.162Z,21.05
2018-09-28T01:39:43.586Z,23.02
2018-09-28T01:42:11.866Z,22.27
2018-09-28T01:44:40.248Z,18.23
2018-09-28T01:47:08.671Z,20.68
2018-09-28T01:49:36.985Z,23.07
2018-09-28T01:52:05.356Z,21.87
2018-09-28T01:54:33.668Z,23.15
2018-09-28T01:57:02.027Z,19.67
2018-09-28T01:59:30.339Z,19.75
2018-09-28T02:01:58.627Z,21.45
2018-09-28T02:04:26.999Z,23.12
2018-09-28T02:06:55.294Z,26.55
2018-09-28T02:09:23.605Z,30.05
2018-09-28T02:11:51.959Z,28.93
2018-09-28T02:14:20.291Z,27.82
2018-09-28T02:16:48.570Z,34.13
2018-09-28T02:19:16.912Z,33.92
2018-09-28T02:21:45.215Z,34.50
2018-09-28T02:24:13.518Z,35.73
2018-09-28T02:26:41.787Z,37.67
2018-09-28T02:29:10.070Z,32.63
2018-09-28T02:31:38.422Z,36.88
2018-09-28T02:34:06.982Z,35.00
2018-09-28T02:36:35.283Z,33.58
2018-09-28T02:39:04.235Z,33.48
2018-09-28T02:41:32.558Z,36.20
2018-09-28T02:44:00.842Z,38.65
2018-09-28T02:46:29.176Z,35.40
2018-09-28T02:48:57.474Z,37.80
2018-09-28T02:51:25.733Z,36.75
2018-09-28T02:53:54.030Z,40.03
2018-09-28T02:56:22.338Z,35.88
2018-09-28T02:58:50.667Z,34.75
2018-09-28T03:01:18.947Z,41.28
2018-09-28T03:03:47.210Z,42.60
2018-09-28T03:06:15.579Z,41.20
2018-09-28T03:08:43.895Z,35.90
2018-09-28T03:11:12.183Z,36.03
2018-09-28T03:13:40.481Z,29.92
2018-09-28T03:16:08.750Z,30.97
2018-09-28T03:18:37.322Z,37.10
2018-09-28T03:21:05.591Z,35.47
2018-09-28T03:23:36.791Z,37.60
2018-09-28T03:26:05.149Z,33.55
2018-09-28T03:28:33.366Z,36.50
2018-09-28T03:31:01.686Z,34.87
2018-09-28T03:33:29.938Z,34.67
2018-09-28T03:35:58.218Z,36.77
2018-09-28T03:38:26.511Z,39.60
2018-09-28T03:40:54.800Z,41.73
2018-09-28T03:43:23.067Z,41.13
2018-09-28T03:45:51.353Z,39.83
2018-09-28T03:48:19.642Z,40.43
2018-09-28T03:50:47.927Z,39.25
2018-09-28T03:53:16.182Z,37.83
2018-09-28T03:55:44.494Z,38.77
2018-09-28T03:58:12.773Z,39.65
2018-09-28T04:00:41.056Z,41.10
2018-09-28T04:03:09.328Z,42.73
2018-09-28T04:05:37.733Z,44.18
2018-09-28T04:08:06.016Z,42.40
2018-09-28T04:10:34.302Z,43.87
2018-09-28T04:13:02.623Z,44.30
2018-09-28T04:15:30.954Z,43.80
2018-09-28T04:17:59.267Z,41.27
2018-09-28T04:20:27.597Z,43.30
2018-09-28T04:22:55.891Z,43.00
2018-09-28T04:25:24.254Z,47.88
2018-09-28T04:27:52.550Z,48.40
2018-09-28T04:30:20.867Z,44.53
2018-09-28T04:32:49.193Z,43.35
2018-09-28T04:35:17.493Z,45.05
2018-09-28T04:37:45.800Z,44.80
2018-09-28T04:40:14.090Z,54.90
2018-09-28T04:42:42.401Z,53.73
2018-09-28T04:45:10.777Z,49.10
2018-09-28T04:47:39.035Z,48.10
2018-09-28T04:50:07.351Z,50.00
2018-09-28T04:52:35.634Z,52.70
2018-09-28T04:55:03.934Z,56.92
2018-09-28T04:57:32.251Z,48.50
2018-09-28T05:00:00.538Z,59.15
2018-09-28T05:02:28.849Z,62.20
2018-09-28T05:04:57.135Z,55.60
2018-09-28T05:07:25.444Z,60.40
2018-09-28T05:09:53.730Z,67.30
2018-09-28T05:12:22.103Z,59.05
2018-09-28T05:14:50.379Z,61.40
2018-09-28T05:17:18.668Z,60.73
2018-09-28T05:19:46.964Z,64.10
2018-09-28T05:22:15.246Z,63.33
2018-09-28T05:24:43.538Z,63.07
2018-09-28T05:27:11.914Z,62.07
2018-09-28T05:29:40.181Z,64.42
2018-09-28T05:32:08.599Z,59.83
2018-09-28T05:34:36.793Z,63.07
2018-09-28T05:37:05.357Z,61.68
2018-09-28T05:39:33.745Z,62.23
2018-09-28T05:42:02.831Z,56.97
2018-09-28T05:44:31.127Z,55.70
2018-09-28T05:46:59.467Z,52.07
2018-09-28T05:49:27.850Z,54.33
2018-09-28T05:51:56.255Z,51.13
2018-09-28T05:54:24.570Z,49.77
2018-09-28T05:56:52.936Z,54.73
2018-09-28T05:59:26.499Z,53.90
2018-09-28T06:02:00.139Z,57.70
2018-09-28T06:04:33.872Z,54.42
2018-09-28T06:07:02.194Z,53.77
2018-09-28T06:09:30.478Z,45.25
2018-09-28T06:11:59.288Z,44.23
2018-09-28T06:14:27.569Z,37.60
2018-09-28T06:16:55.850Z,46.33
2018-09-28T06:19:24.111Z,39.95
2018-09-28T06:21:52.382Z,38.67
2018-09-28T06:24:20.646Z,33.28
2018-09-28T06:26:48.925Z,35.23
2018-09-28T06:29:17.188Z,33.63
2018-09-28T06:31:45.494Z,35.40
2018-09-28T06:34:13.754Z,30.27
2018-09-28T06:36:42.044Z,38.98
2018-09-28T06:39:10.350Z,36.80
2018-09-28T06:41:38.677Z,29.00
2018-09-28T06:44:06.942Z,27.93
2018-09-28T06:46:35.239Z,24.77
2018-09-28T06:49:03.546Z,24.92
2018-09-28T06:51:31.814Z,26.65
2018-09-28T06:54:00.121Z,23.10
2018-09-28T06:56:28.383Z,24.20
2018-09-28T06:58:56.766Z,27.20
2018-09-28T07:01:25.075Z,31.05
2018-09-28T07:03:53.371Z,26.30
2018-09-28T07:06:21.774Z,30.38
2018-09-28T07:08:50.091Z,19.80
2018-09-28T07:11:18.363Z,25.50
2018-09-28T07:13:46.667Z,26.40
2018-09-28T07:16:15.000Z,17.50
2018-09-28T07:18:43.251Z,23.20
2018-09-28T07:21:11.499Z,37.13
2018-09-28T07:23:39.796Z,30.88
2018-09-28T07:26:08.075Z,28.07
2018-09-28T07:28:37.333Z,25.27
2018-09-28T07:31:05.607Z,26.97
2018-09-28T07:33:33.930Z,26.77
2018-09-28T07:36:02.314Z,24.03
2018-09-28T07:38:30.562Z,27.30
2018-09-28T07:40:58.843Z,22.33
2018-09-28T07:43:27.134Z,26.70
2018-09-28T07:45:55.407Z,28.57
2018-09-28T07:53:30.859Z,27.60
2018-09-28T07:55:59.261Z,29.77
2018-09-28T07:58:27.567Z,20.30
2018-09-28T08:01:01.402Z,27.93
2018-09-28T08:03:30.335Z,29.25
2018-09-28T08:06:00.019Z,27.75
2018-09-28T08:08:28.310Z,26.37
2018-09-28T08:10:56.598Z,30.57
2018-09-28T08:13:24.938Z,23.45
2018-09-28T08:15:53.235Z,26.50
2018-09-28T08:18:22.553Z,20.07
2018-09-28T08:20:51.210Z,26.07
2018-09-28T08:23:19.584Z,27.10
2018-09-28T08:25:47.899Z,21.60
2018-09-28T08:28:16.206Z,27.63
2018-09-28T08:30:44.542Z,29.52
2018-09-28T08:33:12.859Z,26.70
2018-09-28T08:35:41.159Z,22.90
2018-09-28T08:38:09.469Z,26.97
2018-09-28T08:40:37.774Z,21.80
2018-09-28T08:43:06.144Z,26.20
2018-09-28T08:45:34.463Z,20.50
2018-09-28T08:48:02.796Z,20.57
2018-09-28T08:50:31.093Z,28.75
2018-09-28T08:52:59.422Z,24.97
2018-09-28T08:55:27.758Z,29.18
2018-09-28T08:57:56.066Z,25.73
2018-09-28T09:00:24.397Z,19.73
2018-09-28T09:02:52.711Z,27.70
2018-09-28T09:05:21.035Z,23.17
2018-09-28T09:07:49.430Z,18.65
2018-09-28T09:10:17.746Z,19.67
2018-09-28T09:12:46.051Z,25.30
2018-09-28T09:15:14.361Z,22.87
2018-09-28T09:17:42.639Z,22.98
2018-09-28T09:20:10.942Z,21.65
2018-09-28T09:22:39.215Z,23.20
2018-09-28T09:25:07.543Z,21.60
2018-09-28T09:27:35.854Z,22.47
2018-09-28T09:30:04.463Z,21.17
2018-09-28T09:32:32.727Z,23.40
2018-09-28T09:35:01.780Z,28.70
2018-09-28T09:37:30.856Z,23.75
2018-09-28T09:39:59.979Z,37.85
2018-09-28T09:42:29.069Z,22.15
2018-09-28T09:44:57.641Z,32.70
2018-09-28T09:47:26.631Z,25.23
2018-09-28T09:49:55.730Z,33.92
2018-09-28T09:52:24.729Z,30.97
2018-09-28T09:54:53.707Z,18.97
2018-09-28T09:57:22.699Z,22.23
2018-09-28T09:59:51.831Z,22.97
2018-09-28T10:02:26.887Z,18.85
2018-09-28T10:04:55.224Z,16.67
2018-09-28T10:07:23.498Z,19.40
2018-09-28T10:09:51.798Z,21.70
2018-09-28T10:12:20.180Z,15.17
2018-09-28T10:14:48.478Z,14.53
2018-09-28T10:17:16.759Z,16.80
2018-09-28T10:19:45.167Z,21.25
2018-09-28T10:22:13.432Z,19.62
2018-09-28T10:24:42.775Z,19.67
2018-09-28T10:27:12.038Z,14.63
2018-09-28T10:29:40.449Z,16.53
2018-09-28T10:32:08.866Z,19.33
2018-09-28T10:34:37.215Z,20.02
2018-09-28T10:37:05.587Z,21.30
2018-09-28T10:39:33.886Z,18.33
2018-09-28T10:42:02.274Z,19.90
2018-09-28T10:44:30.554Z,20.93
2018-09-28T10:46:58.874Z,15.28
2018-09-28T10:49:27.211Z,18.77
2018-09-28T10:51:55.576Z,14.70
2018-09-28T10:54:23.825Z,19.40
2018-09-28T10:56:52.169Z,19.52
2018-09-28T10:59:20.482Z,14.97
2018-09-28T11:01:48.851Z,16.70
2018-09-28T11:04:17.149Z,19.67
2018-09-28T11:06:45.470Z,20.77
2018-09-28T11:09:13.960Z,13.73
2018-09-28T11:11:42.762Z,10.07
2018-09-28T11:14:11.243Z,19.83
2018-09-28T11:16:40.020Z,16.52
2018-09-28T11:19:08.319Z,20.10
2018-09-28T11:21:36.659Z,18.62
2018-09-28T11:24:04.958Z,16.70
2018-09-28T11:26:34.322Z,12.97
2018-09-28T11:29:02.603Z,16.70
2018-09-28T11:31:30.906Z,17.80
2018-09-28T11:33:59.220Z,21.55
2018-09-28T11:36:27.547Z,16.17
2018-09-28T11:38:55.844Z,15.53
2018-09-28T11:41:24.171Z,18.70
2018-09-28T11:43:52.471Z,19.17
2018-09-28T11:46:20.794Z,18.33
2018-09-28T11:48:49.117Z,22.53
2018-09-28T11:51:17.460Z,16.77
2018-09-28T11:53:45.746Z,14.63
2018-09-28T11:56:14.070Z,16.50
2018-09-28T11:58:42.371Z,18.12
2018-09-28T12:01:10.692Z,16.90
2018-09-28T12:03:39.043Z,13.50
2018-09-28T12:06:07.349Z,15.83
2018-09-28T12:08:35.746Z,26.47
2018-09-28T12:11:04.505Z,16.45
2018-09-28T12:13:32.864Z,13.93
2018-09-28T12:16:01.078Z,17.15
2018-09-28T12:18:29.393Z,14.23
2018-09-28T12:20:57.686Z,14.58
2018-09-28T12:23:25.979Z,13.32
2018-09-28T12:25:54.249Z,14.20
2018-09-28T12:28:22.560Z,13.20
2018-09-28T12:30:50.901Z,9.95
2018-09-28T12:33:19.217Z,25.40
2018-09-28T12:35:47.467Z,12.17
2018-09-28T12:38:15.750Z,13.93
2018-09-28T12:40:44.069Z,10.23
2018-09-28T12:43:12.378Z,14.47
2018-09-28T12:45:40.721Z,10.57
2018-09-28T12:48:09.026Z,14.20
2018-09-28T12:50:37.343Z,12.35
2018-09-28T12:53:05.627Z,14.87
2018-09-28T12:55:33.926Z,12.23
2018-09-28T12:58:02.245Z,20.70
2018-09-28T13:00:30.557Z,14.43
2018-09-28T13:02:59.947Z,10.37
2018-09-28T13:05:28.228Z,10.32
2018-09-28T13:07:56.595Z,13.90
2018-09-28T13:10:24.887Z,14.73
2018-09-28T13:12:53.231Z,14.98
2018-09-28T13:15:21.518Z,10.73
2018-09-28T13:17:49.868Z,12.15
2018-09-28T13:20:18.184Z,17.87
2018-09-28T13:22:47.564Z,19.02
2018-09-28T13:25:15.906Z,14.05
2018-09-28T13:27:44.199Z,9.45
2018-09-28T13:30:12.561Z,10.40
2018-09-28T13:32:40.859Z,11.43
2018-09-28T13:35:09.203Z,12.37
2018-09-28T13:37:37.503Z,12.73
2018-09-28T13:40:05.821Z,19.23
2018-09-28T13:42:34.545Z,18.23
2018-09-28T13:45:02.958Z,10.28
2018-09-28T13:47:31.221Z,12.97
2018-09-28T13:49:59.549Z,12.33
2018-09-28T13:52:27.924Z,11.53
2018-09-28T13:54:56.204Z,17.87
2018-09-28T13:57:24.498Z,15.25
2018-09-28T13:59:52.818Z,16.85
2018-09-28T14:02:22.204Z,12.25
2018-09-28T14:04:50.517Z,10.38
2018-09-28T14:07:18.939Z,8.20
2018-09-28T14:09:47.211Z,7.75
2018-09-28T14:12:15.546Z,9.00
2018-09-28T14:14:43.870Z,11.22
2018-09-28T14:17:12.121Z,8.50
2018-09-28T14:19:40.406Z,10.23
2018-09-28T14:22:09.112Z,12.55
2018-09-28T14:24:37.522Z,13.10
2018-09-28T14:27:05.755Z,7.60
2018-09-28T14:29:34.018Z,9.30
2018-09-28T14:32:02.326Z,9.05
2018-09-28T14:34:30.628Z,12.27
2018-09-28T14:36:59.954Z,10.32
2018-09-28T14:39:29.309Z,7.30
2018-09-28T14:41:57.615Z,9.43
2018-09-28T14:44:30.484Z,10.20
2018-09-28T14:46:58.774Z,8.37
2018-09-28T14:49:27.092Z,13.72
2018-09-28T14:51:55.394Z,12.30
2018-09-28T14:54:23.901Z,14.17
2018-09-28T14:56:52.178Z,10.03
2018-09-28T14:59:20.463Z,15.88
2018-09-28T15:01:48.794Z,10.50
2018-09-28T15:04:17.244Z,10.70
2018-09-28T15:06:45.608Z,17.25
2018-09-28T15:09:13.874Z,6.83
2018-09-28T15:11:42.185Z,9.30
2018-09-28T15:14:10.699Z,10.80
2018-09-28T15:16:39.296Z,11.60
2018-09-28T15:19:07.584Z,13.55
2018-09-28T15:21:35.926Z,10.70
2018-09-28T15:24:04.253Z,12.20
2018-09-28T15:26:32.650Z,11.73
2018-09-28T15:29:00.940Z,9.90
2018-09-28T15:31:29.270Z,6.90
2018-09-28T15:33:57.573Z,11.88
2018-09-28T15:36:25.886Z,5.75
2018-09-28T15:38:54.211Z,8.25
2018-09-28T15:41:22.522Z,8.53
2018-09-28T15:43:50.808Z,11.27
2018-09-28T15:46:19.138Z,10.50
2018-09-28T15:48:47.442Z,8.78
2018-09-28T15:51:15.758Z,10.28
2018-09-28T15:53:44.055Z,10.45
2018-09-28T15:56:12.360Z,9.45
2018-09-28T15:58:41.038Z,14.28
2018-09-28T16:01:09.395Z,16.60
2018-09-28T16:03:37.680Z,11.37
2018-09-28T16:06:05.987Z,10.78
2018-09-28T16:08:34.290Z,19.73
2018-09-28T16:11:02.602Z,12.90
2018-09-28T16:13:30.950Z,13.88
2018-09-28T16:15:59.234Z,13.40
2018-09-28T16:18:27.768Z,10.40
2018-09-28T16:20:56.083Z,11.08
2018-09-28T16:23:24.398Z,10.98
2018-09-28T16:25:52.694Z,11.75
2018-09-28T16:28:21.011Z,12.25
2018-09-28T16:30:49.324Z,11.97
2018-09-28T16:33:17.655Z,9.50
2018-09-28T16:35:45.967Z,16.27
2018-09-28T16:38:14.310Z,12.47
2018-09-28T16:40:42.589Z,10.53
2018-09-28T16:43:10.915Z,11.87
2018-09-28T16:45:39.213Z,12.45
2018-09-28T16:48:07.543Z,14.30
2018-09-28T16:50:36.013Z,16.53
2018-09-28T16:53:05.010Z,13.60
2018-09-28T16:55:33.834Z,14.63
2018-09-28T16:58:02.166Z,9.43
2018-09-28T17:00:30.498Z,16.45
2018-09-28T17:02:58.874Z,10.05
2018-09-28T17:05:27.650Z,13.97
2018-09-28T17:07:56.983Z,13.57
2018-09-28T17:10:25.751Z,12.50
2018-09-28T17:12:54.063Z,10.90
2018-09-28T17:15:22.365Z,13.50
2018-09-28T17:17:50.658Z,11.33
2018-09-28T17:20:19.012Z,10.68
2018-09-28T17:22:47.324Z,11.73
2018-09-28T17:25:15.641Z,15.00
2018-09-28T17:27:44.424Z,10.18
2018-09-28T17:30:12.868Z,13.48
2018-09-28T17:32:41.672Z,11.88
2018-09-28T17:35:10.418Z,11.10
2018-09-28T17:37:39.331Z,12.82
2018-09-28T17:40:07.695Z,13.33
2018-09-28T17:42:35.986Z,15.57
2018-09-28T17:45:05.155Z,13.07
2018-09-28T17:47:34.209Z,11.13
2018-09-28T17:50:02.555Z,16.23
2018-09-28T17:52:30.839Z,8.63
2018-09-28T17:54:59.155Z,9.43
2018-09-28T17:57:27.439Z,11.40
2018-09-28T17:59:55.727Z,10.23
2018-09-28T18:02:24.032Z,15.72
2018-09-28T18:04:52.351Z,15.10
2018-09-28T18:07:20.714Z,10.50
2018-09-28T18:09:49.019Z,11.40
2018-09-28T18:12:17.347Z,15.60
2018-09-28T18:14:45.655Z,10.50
2018-09-28T18:17:13.943Z,11.17
2018-09-28T18:19:42.266Z,12.95
2018-09-28T18:22:10.591Z,11.55
2018-09-28T18:24:38.927Z,12.73
2018-09-28T18:27:07.592Z,13.85
2018-09-28T18:29:35.890Z,13.97
2018-09-28T18:32:04.178Z,13.03
2018-09-28T18:34:32.834Z,21.02
2018-09-28T18:37:01.655Z,12.03
2018-09-28T18:39:29.971Z,15.20
2018-09-28T18:41:58.303Z,13.90
2018-09-28T18:44:26.599Z,11.65
2018-09-28T18:46:55.295Z,16.00
2018-09-28T18:49:23.617Z,11.93
2018-09-28T18:51:51.947Z,15.20
2018-09-28T18:54:20.244Z,21.27
2018-09-28T18:56:48.543Z,15.80
2018-09-28T18:59:16.851Z,10.98
2018-09-28T19:01:45.145Z,16.05
2018-09-28T19:04:13.436Z,10.00
2018-09-28T19:06:41.747Z,12.18
2018-09-28T19:09:11.314Z,18.80
2018-09-28T19:11:40.125Z,9.87
2018-09-28T19:14:08.435Z,11.37
2018-09-28T19:16:36.802Z,12.68
2018-09-28T19:19:05.085Z,12.00
2018-09-28T19:21:33.450Z,17.92
2018-09-28T19:24:01.718Z,21.25
2018-09-28T19:26:30.003Z,14.47
2018-09-28T19:28:58.273Z,15.35
2018-09-28T19:31:26.563Z,15.88
2018-09-28T19:33:54.838Z,11.88
2018-09-28T19:36:23.134Z,14.03
2018-09-28T19:38:51.415Z,11.40
2018-09-28T19:41:19.709Z,15.30
2018-09-28T19:43:47.983Z,9.37
2018-09-28T19:46:16.326Z,18.40
2018-09-28T19:48:44.607Z,19.73
2018-09-28T19:51:12.922Z,10.13
2018-09-28T19:53:41.191Z,17.23
2018-09-28T19:56:10.307Z,13.40
2018-09-28T19:58:38.938Z,15.25
2018-09-28T20:01:07.500Z,14.37
2018-09-28T20:03:35.810Z,11.20
2018-09-28T20:06:04.166Z,14.05
2018-09-28T20:08:32.486Z,17.80
2018-09-28T20:11:00.794Z,13.40
2018-09-28T20:13:29.106Z,13.65
2018-09-28T20:15:57.378Z,12.90
2018-09-28T20:18:25.646Z,18.12
2018-09-28T20:20:53.919Z,20.23
2018-09-28T20:23:22.239Z,14.13
2018-09-28T20:25:50.580Z,14.07
2018-09-28T20:28:18.882Z,10.90
2018-09-28T20:30:47.179Z,11.45
2018-09-28T20:33:15.458Z,18.92
2018-09-28T20:35:44.790Z,13.36
2018-09-28T20:38:13.106Z,13.65
2018-09-28T20:40:41.386Z,14.15
2018-09-28T20:43:09.687Z,13.03
2018-09-28T20:45:37.978Z,12.77
2018-09-28T20:48:06.594Z,16.70
2018-09-28T20:50:34.862Z,15.75
2018-09-28T20:53:03.202Z,13.98
2018-09-28T20:55:31.554Z,14.00
2018-09-28T20:57:59.846Z,14.40
2018-09-28T21:00:28.113Z,13.35
2018-09-28T21:02:56.408Z,11.87
2018-09-28T21:05:24.711Z,15.17
2018-09-28T21:07:52.998Z,8.63
2018-09-28T21:10:21.263Z,17.75
2018-09-28T21:12:49.871Z,13.70
2018-09-28T21:15:19.178Z,16.78
2018-09-28T21:17:47.475Z,13.58
2018-09-28T21:20:15.774Z,11.95
2018-09-28T21:22:44.070Z,13.57
2018-09-28T21:25:12.346Z,12.37
2018-09-28T21:27:40.697Z,12.20
2018-09-28T21:30:08.967Z,15.50
2018-09-28T21:32:37.274Z,12.70
2018-09-28T21:35:05.905Z,12.78
2018-09-28T21:37:34.232Z,14.47
2018-09-28T21:40:02.498Z,14.75
2018-09-28T21:42:30.780Z,12.00
2018-09-28T21:44:59.054Z,19.13
2018-09-28T21:47:27.322Z,15.32
2018-09-28T21:49:55.813Z,7.90
2018-09-28T21:52:24.125Z,15.17
2018-09-28T21:54:53.454Z,10.15
2018-09-28T21:57:21.742Z,13.90
2018-09-28T21:59:50.079Z,12.20
2018-09-28T22:02:18.365Z,14.53
2018-09-28T22:04:46.693Z,14.60
2018-09-28T22:07:14.962Z,14.70
2018-09-28T22:09:43.271Z,14.05
2018-09-28T22:12:11.818Z,16.70
2018-09-28T22:14:40.221Z,17.20
2018-09-28T22:17:08.506Z,11.00
2018-09-28T22:19:36.803Z,15.20
2018-09-28T22:22:05.098Z,18.73
2018-09-28T22:24:33.434Z,15.77
2018-09-28T22:27:01.742Z,17.12
2018-09-28T22:29:30.048Z,24.18
2018-09-28T22:31:58.338Z,24.02
2018-09-28T22:34:26.662Z,16.93
2018-09-28T22:36:54.945Z,13.75
2018-09-28T22:39:23.241Z,19.30
2018-09-28T22:41:51.532Z,19.87
2018-09-28T22:44:19.839Z,16.62
2018-09-28T22:46:48.134Z,19.20
2018-09-28T22:49:16.430Z,18.40
2018-09-28T22:51:44.717Z,17.55
2018-09-28T22:54:13.028Z,16.90
2018-09-28T22:56:41.326Z,18.17
2018-09-28T22:59:09.639Z,10.48
2018-09-28T23:01:39.151Z,16.77
2018-09-28T23:04:08.468Z,11.00
2018-09-28T23:06:36.755Z,21.57
2018-09-28T23:09:06.528Z,14.35
2018-09-28T23:11:34.823Z,18.12
2018-09-28T23:14:03.167Z,15.15
2018-09-28T23:16:31.454Z,14.23
2018-09-28T23:18:59.742Z,14.25
2018-09-28T23:21:28.053Z,12.45
2018-09-28T23:23:56.330Z,18.57
2018-09-28T23:26:24.595Z,10.68
2018-09-28T23:28:52.889Z,15.40
2018-09-28T23:31:21.172Z,13.40
2018-09-28T23:33:49.479Z,13.03
2018-09-28T23:36:17.742Z,15.58
2018-09-28T23:38:46.028Z,19.23
2018-09-28T23:41:14.286Z,18.50
2018-09-28T23:43:42.600Z,15.15
2018-09-28T23:46:10.854Z,13.83
2018-09-28T23:48:39.130Z,10.73
2018-09-28T23:51:07.474Z,18.27
2018-09-28T23:53:35.831Z,9.25
2018-09-28T23:56:04.085Z,17.15
2018-09-28T23:58:32.362Z,10.98
